Terminal Aerodrome Forecast
Issued by NWS

Home | Current Version | Previous Version | Text Only | Print | Product List | Glossary On
Versions: 1 2 3 4 5 6 7 8 9 10 11 12 13 14 15 16 17 18 19 20 21 22 23 24 25 26 27 28 29
000
FTUS43 KAPX 240947 AAB
TAFTVC
TAF AMD
KTVC 240947Z 2410/2506 VRB03KT P6SM OVC006
      TEMPO 2410/2414 -SHRA OVC003
     FM241400 05008KT P6SM -SHRA BKN015 OVC060
     FM241900 05009KT P6SM BKN060
     FM250100 04006KT P6SM BKN050=

USA.gov is the U.S. government's official web portal to all federal, state and local government web resources and services.